sensor_id;sensor_type;location;lat;lon;timestamp;P1;durP1;ratioP1;P2;durP2;ratioP2
18200;SDS011;9226;47.858;9.594;2023-12-20T00:01:37;7.40;;;3.67;;
18200;SDS011;9226;47.858;9.594;2023-12-20T00:04:03;6.97;;;3.53;;
18200;SDS011;9226;47.858;9.594;2023-12-20T00:06:29;8.37;;;3.37;;
18200;SDS011;9226;47.858;9.594;2023-12-20T00:08:54;8.43;;;3.80;;
18200;SDS011;9226;47.858;9.594;2023-12-20T00:11:20;11.23;;;3.50;;
18200;SDS011;9226;47.858;9.594;2023-12-20T00:13:45;6.57;;;3.60;;
18200;SDS011;9226;47.858;9.594;2023-12-20T00:16:11;8.80;;;4.10;;
18200;SDS011;9226;47.858;9.594;2023-12-20T00:18:36;6.60;;;3.57;;
18200;SDS011;9226;47.858;9.594;2023-12-20T00:21:02;7.07;;;3.70;;
18200;SDS011;9226;47.858;9.594;2023-12-20T00:23:27;7.00;;;3.30;;
18200;SDS011;9226;47.858;9.594;2023-12-20T00:25:52;8.73;;;3.90;;
18200;SDS011;9226;47.858;9.594;2023-12-20T00:28:18;9.40;;;3.40;;
18200;SDS011;9226;47.858;9.594;2023-12-20T00:30:43;7.80;;;3.40;;
18200;SDS011;9226;47.858;9.594;2023-12-20T00:33:09;7.93;;;3.90;;
18200;SDS011;9226;47.858;9.594;2023-12-20T00:35:34;8.23;;;4.17;;
18200;SDS011;9226;47.858;9.594;2023-12-20T00:37:59;7.93;;;3.47;;
18200;SDS011;9226;47.858;9.594;2023-12-20T00:40:25;9.40;;;4.17;;
18200;SDS011;9226;47.858;9.594;2023-12-20T00:42:50;7.30;;;3.47;;
18200;SDS011;9226;47.858;9.594;2023-12-20T00:45:16;8.67;;;3.57;;
18200;SDS011;9226;47.858;9.594;2023-12-20T00:47:41;6.47;;;3.10;;
18200;SDS011;9226;47.858;9.594;2023-12-20T00:50:07;6.87;;;3.30;;
18200;SDS011;9226;47.858;9.594;2023-12-20T00:52:32;10.10;;;3.80;;
18200;SDS011;9226;47.858;9.594;2023-12-20T00:54:57;7.27;;;3.57;;
18200;SDS011;9226;47.858;9.594;2023-12-20T00:57:23;7.43;;;3.20;;
18200;SDS011;9226;47.858;9.594;2023-12-20T00:59:49;7.23;;;3.10;;
18200;SDS011;9226;47.858;9.594;2023-12-20T01:02:14;5.27;;;2.77;;
18200;SDS011;9226;47.858;9.594;2023-12-20T01:04:39;6.00;;;3.33;;
18200;SDS011;9226;47.858;9.594;2023-12-20T01:07:05;7.63;;;3.17;;
18200;SDS011;9226;47.858;9.594;2023-12-20T01:09:30;5.43;;;2.80;;
18200;SDS011;9226;47.858;9.594;2023-12-20T01:11:56;6.27;;;3.17;;
18200;SDS011;9226;47.858;9.594;2023-12-20T01:14:21;5.93;;;2.93;;
18200;SDS011;9226;47.858;9.594;2023-12-20T01:16:46;5.13;;;2.63;;
18200;SDS011;9226;47.858;9.594;2023-12-20T01:19:12;5.27;;;2.90;;
18200;SDS011;9226;47.858;9.594;2023-12-20T01:21:39;5.37;;;2.87;;
18200;SDS011;9226;47.858;9.594;2023-12-20T01:24:04;6.27;;;3.00;;
18200;SDS011;9226;47.858;9.594;2023-12-20T01:26:30;7.03;;;2.90;;
18200;SDS011;9226;47.858;9.594;2023-12-20T01:28:55;6.00;;;2.57;;
18200;SDS011;9226;47.858;9.594;2023-12-20T01:31:20;7.43;;;3.27;;
18200;SDS011;9226;47.858;9.594;2023-12-20T01:33:46;5.73;;;3.13;;
18200;SDS011;9226;47.858;9.594;2023-12-20T01:36:11;7.30;;;2.90;;
18200;SDS011;9226;47.858;9.594;2023-12-20T01:38:37;7.40;;;3.47;;
18200;SDS011;9226;47.858;9.594;2023-12-20T01:41:02;6.13;;;3.20;;
18200;SDS011;9226;47.858;9.594;2023-12-20T01:43:29;6.03;;;2.83;;
18200;SDS011;9226;47.858;9.594;2023-12-20T01:45:55;6.13;;;3.10;;
18200;SDS011;9226;47.858;9.594;2023-12-20T01:48:22;5.03;;;2.90;;
18200;SDS011;9226;47.858;9.594;2023-12-20T01:50:48;6.27;;;2.90;;
18200;SDS011;9226;47.858;9.594;2023-12-20T01:53:14;6.63;;;2.97;;
18200;SDS011;9226;47.858;9.594;2023-12-20T01:55:40;4.83;;;2.60;;
18200;SDS011;9226;47.858;9.594;2023-12-20T01:58:07;7.63;;;2.80;;
18200;SDS011;9226;47.858;9.594;2023-12-20T02:00:35;5.17;;;2.77;;
18200;SDS011;9226;47.858;9.594;2023-12-20T02:03:01;4.70;;;2.93;;
18200;SDS011;9226;47.858;9.594;2023-12-20T02:05:27;6.43;;;3.10;;
18200;SDS011;9226;47.858;9.594;2023-12-20T02:07:54;5.27;;;2.80;;
18200;SDS011;9226;47.858;9.594;2023-12-20T02:10:19;5.73;;;3.00;;
18200;SDS011;9226;47.858;9.594;2023-12-20T02:12:45;7.37;;;2.90;;
18200;SDS011;9226;47.858;9.594;2023-12-20T02:15:10;4.80;;;2.80;;
18200;SDS011;9226;47.858;9.594;2023-12-20T02:17:36;7.63;;;3.27;;
18200;SDS011;9226;47.858;9.594;2023-12-20T02:20:03;7.53;;;3.27;;
18200;SDS011;9226;47.858;9.594;2023-12-20T02:22:30;6.57;;;3.60;;
18200;SDS011;9226;47.858;9.594;2023-12-20T02:24:56;5.73;;;2.80;;
18200;SDS011;9226;47.858;9.594;2023-12-20T02:27:21;8.20;;;3.30;;
18200;SDS011;9226;47.858;9.594;2023-12-20T02:29:48;6.40;;;3.03;;
18200;SDS011;9226;47.858;9.594;2023-12-20T02:32:13;6.63;;;3.20;;
18200;SDS011;9226;47.858;9.594;2023-12-20T02:34:39;8.37;;;3.20;;
18200;SDS011;9226;47.858;9.594;2023-12-20T02:37:04;5.00;;;2.80;;
18200;SDS011;9226;47.858;9.594;2023-12-20T02:39:29;6.63;;;3.00;;
18200;SDS011;9226;47.858;9.594;2023-12-20T02:41:55;7.50;;;3.70;;
18200;SDS011;9226;47.858;9.594;2023-12-20T02:44:20;5.70;;;2.90;;
18200;SDS011;9226;47.858;9.594;2023-12-20T02:46:46;6.60;;;3.40;;
18200;SDS011;9226;47.858;9.594;2023-12-20T02:49:11;5.87;;;2.93;;
18200;SDS011;9226;47.858;9.594;2023-12-20T02:51:36;7.00;;;3.40;;
18200;SDS011;9226;47.858;9.594;2023-12-20T02:54:03;5.70;;;3.03;;
18200;SDS011;9226;47.858;9.594;2023-12-20T02:56:29;6.47;;;3.40;;
18200;SDS011;9226;47.858;9.594;2023-12-20T02:58:54;6.50;;;3.40;;
18200;SDS011;9226;47.858;9.594;2023-12-20T03:01:20;4.90;;;2.90;;
18200;SDS011;9226;47.858;9.594;2023-12-20T03:03:45;7.33;;;3.70;;
18200;SDS011;9226;47.858;9.594;2023-12-20T03:06:10;6.83;;;3.47;;
18200;SDS011;9226;47.858;9.594;2023-12-20T03:08:36;7.37;;;3.47;;
18200;SDS011;9226;47.858;9.594;2023-12-20T03:11:02;6.57;;;3.40;;
18200;SDS011;9226;47.858;9.594;2023-12-20T03:13:27;7.83;;;3.70;;
18200;SDS011;9226;47.858;9.594;2023-12-20T03:15:52;8.13;;;3.70;;
18200;SDS011;9226;47.858;9.594;2023-12-20T03:18:18;8.87;;;4.07;;
18200;SDS011;9226;47.858;9.594;2023-12-20T03:20:43;8.13;;;4.07;;
18200;SDS011;9226;47.858;9.594;2023-12-20T03:23:09;7.93;;;4.07;;
18200;SDS011;9226;47.858;9.594;2023-12-20T03:25:34;7.93;;;4.13;;
18200;SDS011;9226;47.858;9.594;2023-12-20T03:27:59;9.10;;;4.13;;
18200;SDS011;9226;47.858;9.594;2023-12-20T03:30:25;9.77;;;4.57;;
18200;SDS011;9226;47.858;9.594;2023-12-20T03:32:50;8.83;;;4.50;;
18200;SDS011;9226;47.858;9.594;2023-12-20T03:35:16;10.30;;;4.97;;
18200;SDS011;9226;47.858;9.594;2023-12-20T03:37:41;11.40;;;5.00;;
18200;SDS011;9226;47.858;9.594;2023-12-20T03:40:07;11.63;;;5.20;;
18200;SDS011;9226;47.858;9.594;2023-12-20T03:42:32;14.27;;;5.57;;
18200;SDS011;9226;47.858;9.594;2023-12-20T03:44:58;11.13;;;5.00;;
18200;SDS011;9226;47.858;9.594;2023-12-20T03:47:23;10.83;;;4.70;;
18200;SDS011;9226;47.858;9.594;2023-12-20T03:49:48;14.37;;;5.63;;
18200;SDS011;9226;47.858;9.594;2023-12-20T03:52:14;12.43;;;5.10;;
18200;SDS011;9226;47.858;9.594;2023-12-20T03:54:39;10.10;;;5.17;;
18200;SDS011;9226;47.858;9.594;2023-12-20T03:57:06;10.73;;;5.33;;
18200;SDS011;9226;47.858;9.594;2023-12-20T03:59:35;11.23;;;5.27;;
18200;SDS011;9226;47.858;9.594;2023-12-20T04:02:01;12.77;;;5.70;;
18200;SDS011;9226;47.858;9.594;2023-12-20T04:04:27;13.37;;;5.40;;
18200;SDS011;9226;47.858;9.594;2023-12-20T04:06:52;9.50;;;4.97;;
18200;SDS011;9226;47.858;9.594;2023-12-20T04:09:18;11.73;;;5.63;;
18200;SDS011;9226;47.858;9.594;2023-12-20T04:11:43;12.40;;;5.37;;
18200;SDS011;9226;47.858;9.594;2023-12-20T04:14:08;18.03;;;5.87;;
18200;SDS011;9226;47.858;9.594;2023-12-20T04:16:35;13.53;;;6.13;;
18200;SDS011;9226;47.858;9.594;2023-12-20T04:19:00;12.03;;;5.90;;
18200;SDS011;9226;47.858;9.594;2023-12-20T04:21:26;11.30;;;5.43;;
18200;SDS011;9226;47.858;9.594;2023-12-20T04:23:51;12.87;;;5.80;;
18200;SDS011;9226;47.858;9.594;2023-12-20T04:26:16;14.43;;;6.27;;
18200;SDS011;9226;47.858;9.594;2023-12-20T04:28:42;14.77;;;7.00;;
18200;SDS011;9226;47.858;9.594;2023-12-20T04:31:07;12.27;;;6.20;;
18200;SDS011;9226;47.858;9.594;2023-12-20T04:33:33;14.53;;;6.87;;
18200;SDS011;9226;47.858;9.594;2023-12-20T04:35:58;13.20;;;6.47;;
18200;SDS011;9226;47.858;9.594;2023-12-20T04:38:25;13.77;;;6.27;;
18200;SDS011;9226;47.858;9.594;2023-12-20T04:40:51;18.13;;;6.63;;
18200;SDS011;9226;47.858;9.594;2023-12-20T04:43:17;12.40;;;5.93;;
18200;SDS011;9226;47.858;9.594;2023-12-20T04:45:42;16.20;;;7.27;;
18200;SDS011;9226;47.858;9.594;2023-12-20T04:48:07;16.40;;;6.33;;
18200;SDS011;9226;47.858;9.594;2023-12-20T04:50:33;18.70;;;6.80;;
18200;SDS011;9226;47.858;9.594;2023-12-20T04:52:58;13.70;;;6.50;;
18200;SDS011;9226;47.858;9.594;2023-12-20T04:55:24;12.23;;;6.03;;
18200;SDS011;9226;47.858;9.594;2023-12-20T04:57:49;12.30;;;6.00;;
18200;SDS011;9226;47.858;9.594;2023-12-20T05:00:14;12.57;;;5.13;;
18200;SDS011;9226;47.858;9.594;2023-12-20T05:02:40;10.50;;;5.10;;
18200;SDS011;9226;47.858;9.594;2023-12-20T05:05:06;10.80;;;5.00;;
18200;SDS011;9226;47.858;9.594;2023-12-20T05:07:32;10.53;;;4.53;;
18200;SDS011;9226;47.858;9.594;2023-12-20T05:09:58;9.47;;;4.67;;
18200;SDS011;9226;47.858;9.594;2023-12-20T05:12:23;11.07;;;4.70;;
18200;SDS011;9226;47.858;9.594;2023-12-20T05:14:49;8.70;;;4.37;;
18200;SDS011;9226;47.858;9.594;2023-12-20T05:17:14;9.37;;;4.63;;
18200;SDS011;9226;47.858;9.594;2023-12-20T05:19:40;8.47;;;3.80;;
18200;SDS011;9226;47.858;9.594;2023-12-20T05:22:05;9.00;;;4.50;;
18200;SDS011;9226;47.858;9.594;2023-12-20T05:24:31;10.73;;;4.20;;
18200;SDS011;9226;47.858;9.594;2023-12-20T05:26:56;10.03;;;4.40;;
18200;SDS011;9226;47.858;9.594;2023-12-20T05:29:21;8.70;;;3.63;;
18200;SDS011;9226;47.858;9.594;2023-12-20T05:31:47;8.90;;;3.70;;
18200;SDS011;9226;47.858;9.594;2023-12-20T05:34:12;8.23;;;3.73;;
18200;SDS011;9226;47.858;9.594;2023-12-20T05:36:37;8.80;;;4.33;;
18200;SDS011;9226;47.858;9.594;2023-12-20T05:39:04;9.07;;;4.27;;
18200;SDS011;9226;47.858;9.594;2023-12-20T05:41:30;8.77;;;4.30;;
18200;SDS011;9226;47.858;9.594;2023-12-20T05:43:55;9.07;;;4.17;;
18200;SDS011;9226;47.858;9.594;2023-12-20T05:46:23;7.07;;;3.63;;
18200;SDS011;9226;47.858;9.594;2023-12-20T05:48:48;8.17;;;4.17;;
18200;SDS011;9226;47.858;9.594;2023-12-20T05:51:14;8.53;;;4.10;;
18200;SDS011;9226;47.858;9.594;2023-12-20T05:53:39;8.20;;;3.87;;
18200;SDS011;9226;47.858;9.594;2023-12-20T05:56:05;7.53;;;4.10;;
18200;SDS011;9226;47.858;9.594;2023-12-20T05:58:31;10.53;;;4.00;;
18200;SDS011;9226;47.858;9.594;2023-12-20T06:01:00;8.30;;;3.80;;
18200;SDS011;9226;47.858;9.594;2023-12-20T06:03:25;7.70;;;3.97;;
18200;SDS011;9226;47.858;9.594;2023-12-20T06:05:51;8.53;;;4.17;;
18200;SDS011;9226;47.858;9.594;2023-12-20T06:08:16;7.80;;;3.53;;
18200;SDS011;9226;47.858;9.594;2023-12-20T06:10:41;6.97;;;3.77;;
18200;SDS011;9226;47.858;9.594;2023-12-20T06:13:07;6.70;;;3.37;;
18200;SDS011;9226;47.858;9.594;2023-12-20T06:15:32;6.93;;;3.80;;
18200;SDS011;9226;47.858;9.594;2023-12-20T06:17:58;6.80;;;3.50;;
18200;SDS011;9226;47.858;9.594;2023-12-20T06:20:23;7.90;;;3.80;;
18200;SDS011;9226;47.858;9.594;2023-12-20T06:22:49;6.80;;;3.60;;
18200;SDS011;9226;47.858;9.594;2023-12-20T06:25:15;8.03;;;4.40;;
18200;SDS011;9226;47.858;9.594;2023-12-20T06:27:40;13.60;;;4.07;;
18200;SDS011;9226;47.858;9.594;2023-12-20T06:30:06;6.53;;;3.60;;
18200;SDS011;9226;47.858;9.594;2023-12-20T06:32:34;9.40;;;4.03;;
18200;SDS011;9226;47.858;9.594;2023-12-20T06:34:59;7.57;;;3.83;;
18200;SDS011;9226;47.858;9.594;2023-12-20T06:37:25;8.90;;;4.07;;
18200;SDS011;9226;47.858;9.594;2023-12-20T06:39:50;9.90;;;4.17;;
18200;SDS011;9226;47.858;9.594;2023-12-20T06:42:16;10.57;;;4.43;;
18200;SDS011;9226;47.858;9.594;2023-12-20T06:44:41;8.23;;;4.17;;
18200;SDS011;9226;47.858;9.594;2023-12-20T06:47:07;9.60;;;4.50;;
18200;SDS011;9226;47.858;9.594;2023-12-20T06:49:33;11.87;;;4.87;;
18200;SDS011;9226;47.858;9.594;2023-12-20T06:51:58;11.90;;;4.90;;
18200;SDS011;9226;47.858;9.594;2023-12-20T06:54:23;8.57;;;4.67;;
18200;SDS011;9226;47.858;9.594;2023-12-20T06:56:49;10.40;;;5.20;;
18200;SDS011;9226;47.858;9.594;2023-12-20T06:59:14;11.77;;;5.60;;
18200;SDS011;9226;47.858;9.594;2023-12-20T07:01:40;10.33;;;4.73;;
18200;SDS011;9226;47.858;9.594;2023-12-20T07:04:05;15.83;;;5.60;;
18200;SDS011;9226;47.858;9.594;2023-12-20T07:06:31;12.03;;;5.47;;
18200;SDS011;9226;47.858;9.594;2023-12-20T07:08:56;11.97;;;5.50;;
18200;SDS011;9226;47.858;9.594;2023-12-20T07:11:21;10.73;;;5.10;;
18200;SDS011;9226;47.858;9.594;2023-12-20T07:13:47;14.77;;;5.73;;
18200;SDS011;9226;47.858;9.594;2023-12-20T07:16:12;13.23;;;5.40;;
18200;SDS011;9226;47.858;9.594;2023-12-20T07:18:38;13.00;;;5.33;;
18200;SDS011;9226;47.858;9.594;2023-12-20T07:21:03;11.63;;;5.50;;
18200;SDS011;9226;47.858;9.594;2023-12-20T07:23:29;9.67;;;5.10;;
18200;SDS011;9226;47.858;9.594;2023-12-20T07:25:54;10.70;;;5.47;;
18200;SDS011;9226;47.858;9.594;2023-12-20T07:28:20;10.67;;;5.13;;
18200;SDS011;9226;47.858;9.594;2023-12-20T07:30:45;18.03;;;5.60;;
18200;SDS011;9226;47.858;9.594;2023-12-20T07:33:11;11.07;;;5.60;;
18200;SDS011;9226;47.858;9.594;2023-12-20T07:35:37;10.57;;;5.40;;
18200;SDS011;9226;47.858;9.594;2023-12-20T07:38:03;10.10;;;5.60;;
18200;SDS011;9226;47.858;9.594;2023-12-20T07:40:28;11.17;;;5.43;;
18200;SDS011;9226;47.858;9.594;2023-12-20T07:42:54;13.17;;;5.73;;
18200;SDS011;9226;47.858;9.594;2023-12-20T07:45:19;9.80;;;5.30;;
18200;SDS011;9226;47.858;9.594;2023-12-20T07:47:44;10.90;;;5.30;;
18200;SDS011;9226;47.858;9.594;2023-12-20T07:50:10;10.57;;;5.00;;
18200;SDS011;9226;47.858;9.594;2023-12-20T07:52:35;11.70;;;5.43;;
18200;SDS011;9226;47.858;9.594;2023-12-20T07:55:01;12.47;;;5.10;;
18200;SDS011;9226;47.858;9.594;2023-12-20T07:57:28;10.00;;;4.93;;
18200;SDS011;9226;47.858;9.594;2023-12-20T07:59:55;10.20;;;4.70;;
18200;SDS011;9226;47.858;9.594;2023-12-20T08:02:20;7.93;;;4.47;;
18200;SDS011;9226;47.858;9.594;2023-12-20T08:04:45;10.40;;;4.80;;
18200;SDS011;9226;47.858;9.594;2023-12-20T08:07:11;9.17;;;4.23;;
18200;SDS011;9226;47.858;9.594;2023-12-20T08:09:36;9.23;;;4.50;;
18200;SDS011;9226;47.858;9.594;2023-12-20T08:12:02;8.70;;;3.63;;
18200;SDS011;9226;47.858;9.594;2023-12-20T08:14:27;8.30;;;4.23;;
18200;SDS011;9226;47.858;9.594;2023-12-20T08:16:53;8.07;;;3.80;;
18200;SDS011;9226;47.858;9.594;2023-12-20T08:19:18;8.93;;;3.83;;
18200;SDS011;9226;47.858;9.594;2023-12-20T08:21:44;8.67;;;3.43;;
18200;SDS011;9226;47.858;9.594;2023-12-20T08:24:09;9.53;;;4.13;;
18200;SDS011;9226;47.858;9.594;2023-12-20T08:26:34;6.50;;;3.13;;
18200;SDS011;9226;47.858;9.594;2023-12-20T08:29:00;6.73;;;3.47;;
18200;SDS011;9226;47.858;9.594;2023-12-20T08:31:25;8.17;;;4.00;;
18200;SDS011;9226;47.858;9.594;2023-12-20T08:33:51;6.80;;;3.83;;
18200;SDS011;9226;47.858;9.594;2023-12-20T08:36:18;6.60;;;3.10;;
18200;SDS011;9226;47.858;9.594;2023-12-20T08:38:46;8.67;;;4.33;;
18200;SDS011;9226;47.858;9.594;2023-12-20T08:41:11;8.03;;;3.77;;
18200;SDS011;9226;47.858;9.594;2023-12-20T08:43:37;8.37;;;3.33;;
18200;SDS011;9226;47.858;9.594;2023-12-20T08:46:05;7.87;;;3.70;;
18200;SDS011;9226;47.858;9.594;2023-12-20T08:48:31;5.97;;;3.33;;
18200;SDS011;9226;47.858;9.594;2023-12-20T08:50:56;6.43;;;3.40;;
18200;SDS011;9226;47.858;9.594;2023-12-20T08:53:21;9.23;;;3.67;;
18200;SDS011;9226;47.858;9.594;2023-12-20T08:55:47;8.13;;;3.73;;
18200;SDS011;9226;47.858;9.594;2023-12-20T08:58:12;8.60;;;3.60;;
18200;SDS011;9226;47.858;9.594;2023-12-20T09:00:38;8.10;;;3.87;;
18200;SDS011;9226;47.858;9.594;2023-12-20T09:03:04;7.53;;;3.77;;
18200;SDS011;9226;47.858;9.594;2023-12-20T09:05:29;7.77;;;4.10;;
18200;SDS011;9226;47.858;9.594;2023-12-20T09:07:55;8.50;;;4.37;;
18200;SDS011;9226;47.858;9.594;2023-12-20T09:10:20;10.33;;;4.57;;
18200;SDS011;9226;47.858;9.594;2023-12-20T09:12:50;11.20;;;4.90;;
18200;SDS011;9226;47.858;9.594;2023-12-20T09:15:19;12.07;;;5.43;;
18200;SDS011;9226;47.858;9.594;2023-12-20T09:17:44;11.57;;;5.60;;
18200;SDS011;9226;47.858;9.594;2023-12-20T09:20:10;13.60;;;6.17;;
18200;SDS011;9226;47.858;9.594;2023-12-20T09:22:35;10.77;;;5.60;;
18200;SDS011;9226;47.858;9.594;2023-12-20T09:25:03;12.97;;;5.90;;
18200;SDS011;9226;47.858;9.594;2023-12-20T09:27:29;10.37;;;5.00;;
18200;SDS011;9226;47.858;9.594;2023-12-20T09:29:54;15.43;;;5.60;;
18200;SDS011;9226;47.858;9.594;2023-12-20T09:32:19;9.53;;;5.07;;
18200;SDS011;9226;47.858;9.594;2023-12-20T09:34:48;10.37;;;5.20;;
18200;SDS011;9226;47.858;9.594;2023-12-20T09:37:13;10.27;;;5.30;;
18200;SDS011;9226;47.858;9.594;2023-12-20T09:39:39;9.50;;;5.00;;
18200;SDS011;9226;47.858;9.594;2023-12-20T09:42:04;12.13;;;5.20;;
18200;SDS011;9226;47.858;9.594;2023-12-20T09:44:31;11.17;;;4.80;;
18200;SDS011;9226;47.858;9.594;2023-12-20T09:47:04;8.93;;;4.27;;
18200;SDS011;9226;47.858;9.594;2023-12-20T09:49:30;9.63;;;4.87;;
18200;SDS011;9226;47.858;9.594;2023-12-20T09:51:56;9.93;;;4.97;;
18200;SDS011;9226;47.858;9.594;2023-12-20T09:54:22;8.77;;;4.20;;
18200;SDS011;9226;47.858;9.594;2023-12-20T09:56:48;10.00;;;4.50;;
18200;SDS011;9226;47.858;9.594;2023-12-20T09:59:14;8.27;;;4.23;;
18200;SDS011;9226;47.858;9.594;2023-12-20T10:01:40;7.93;;;4.13;;
18200;SDS011;9226;47.858;9.594;2023-12-20T10:04:07;9.40;;;4.20;;
18200;SDS011;9226;47.858;9.594;2023-12-20T10:09:09;8.57;;;4.30;;
18200;SDS011;9226;47.858;9.594;2023-12-20T10:11:36;9.47;;;4.13;;
18200;SDS011;9226;47.858;9.594;2023-12-20T10:14:02;11.13;;;4.00;;
18200;SDS011;9226;47.858;9.594;2023-12-20T10:16:28;7.93;;;3.90;;
18200;SDS011;9226;47.858;9.594;2023-12-20T10:18:54;7.53;;;3.10;;
18200;SDS011;9226;47.858;9.594;2023-12-20T10:21:21;8.63;;;3.80;;
18200;SDS011;9226;47.858;9.594;2023-12-20T10:23:51;6.87;;;3.57;;
18200;SDS011;9226;47.858;9.594;2023-12-20T10:26:20;6.93;;;3.77;;
18200;SDS011;9226;47.858;9.594;2023-12-20T10:28:49;6.10;;;2.70;;
18200;SDS011;9226;47.858;9.594;2023-12-20T10:31:31;6.37;;;3.00;;
18200;SDS011;9226;47.858;9.594;2023-12-20T10:33:58;4.83;;;2.97;;
18200;SDS011;9226;47.858;9.594;2023-12-20T10:36:26;4.90;;;2.77;;
18200;SDS011;9226;47.858;9.594;2023-12-20T10:38:52;5.30;;;3.03;;
18200;SDS011;9226;47.858;9.594;2023-12-20T10:41:24;4.07;;;2.57;;
18200;SDS011;9226;47.858;9.594;2023-12-20T10:43:58;4.20;;;2.63;;
18200;SDS011;9226;47.858;9.594;2023-12-20T10:46:28;4.07;;;2.57;;
18200;SDS011;9226;47.858;9.594;2023-12-20T10:48:55;3.80;;;2.50;;
18200;SDS011;9226;47.858;9.594;2023-12-20T10:51:21;5.50;;;2.70;;
18200;SDS011;9226;47.858;9.594;2023-12-20T10:53:48;3.37;;;2.40;;
18200;SDS011;9226;47.858;9.594;2023-12-20T10:56:15;3.80;;;2.27;;
18200;SDS011;9226;47.858;9.594;2023-12-20T10:58:46;3.70;;;2.17;;
18200;SDS011;9226;47.858;9.594;2023-12-20T11:01:13;5.07;;;2.67;;
18200;SDS011;9226;47.858;9.594;2023-12-20T11:03:49;3.87;;;2.43;;
18200;SDS011;9226;47.858;9.594;2023-12-20T11:09:38;5.00;;;2.63;;
18200;SDS011;9226;47.858;9.594;2023-12-20T11:17:10;3.57;;;2.10;;
18200;SDS011;9226;47.858;9.594;2023-12-20T11:20:21;3.13;;;2.30;;
18200;SDS011;9226;47.858;9.594;2023-12-20T11:22:31;3.10;;;2.00;;
18200;SDS011;9226;47.858;9.594;2023-12-20T11:25:04;2.23;;;1.63;;
18200;SDS011;9226;47.858;9.594;2023-12-20T11:27:35;6.27;;;2.10;;
18200;SDS011;9226;47.858;9.594;2023-12-20T11:30:02;2.43;;;1.87;;
18200;SDS011;9226;47.858;9.594;2023-12-20T11:32:35;3.40;;;1.80;;
18200;SDS011;9226;47.858;9.594;2023-12-20T11:35:16;2.43;;;1.53;;
18200;SDS011;9226;47.858;9.594;2023-12-20T11:37:43;6.70;;;2.63;;
18200;SDS011;9226;47.858;9.594;2023-12-20T11:40:13;2.73;;;1.63;;
18200;SDS011;9226;47.858;9.594;2023-12-20T11:42:40;2.17;;;1.47;;
18200;SDS011;9226;47.858;9.594;2023-12-20T11:45:10;2.77;;;1.60;;
18200;SDS011;9226;47.858;9.594;2023-12-20T11:47:39;2.23;;;1.53;;
18200;SDS011;9226;47.858;9.594;2023-12-20T11:50:05;4.17;;;1.97;;
18200;SDS011;9226;47.858;9.594;2023-12-20T11:52:31;2.73;;;1.60;;
18200;SDS011;9226;47.858;9.594;2023-12-20T11:54:56;1.73;;;1.13;;
18200;SDS011;9226;47.858;9.594;2023-12-20T11:57:22;1.67;;;1.40;;
18200;SDS011;9226;47.858;9.594;2023-12-20T11:59:47;1.90;;;1.33;;
18200;SDS011;9226;47.858;9.594;2023-12-20T12:02:13;2.00;;;1.30;;
18200;SDS011;9226;47.858;9.594;2023-12-20T12:04:41;1.33;;;1.20;;
18200;SDS011;9226;47.858;9.594;2023-12-20T12:07:06;2.23;;;1.30;;
18200;SDS011;9226;47.858;9.594;2023-12-20T12:09:32;2.17;;;1.40;;
18200;SDS011;9226;47.858;9.594;2023-12-20T12:11:57;1.80;;;1.37;;
18200;SDS011;9226;47.858;9.594;2023-12-20T12:14:23;3.80;;;1.40;;
18200;SDS011;9226;47.858;9.594;2023-12-20T12:16:49;2.17;;;1.43;;
18200;SDS011;9226;47.858;9.594;2023-12-20T12:19:25;2.43;;;1.20;;
18200;SDS011;9226;47.858;9.594;2023-12-20T12:21:52;2.53;;;1.50;;
18200;SDS011;9226;47.858;9.594;2023-12-20T12:24:34;2.17;;;1.40;;
18200;SDS011;9226;47.858;9.594;2023-12-20T12:26:59;1.60;;;1.20;;
18200;SDS011;9226;47.858;9.594;2023-12-20T12:29:25;2.13;;;1.30;;
18200;SDS011;9226;47.858;9.594;2023-12-20T12:31:50;1.83;;;1.20;;
18200;SDS011;9226;47.858;9.594;2023-12-20T12:34:17;2.77;;;1.50;;
18200;SDS011;9226;47.858;9.594;2023-12-20T12:36:43;1.40;;;1.10;;
18200;SDS011;9226;47.858;9.594;2023-12-20T12:39:09;1.30;;;1.00;;
18200;SDS011;9226;47.858;9.594;2023-12-20T12:41:36;0.80;;;0.80;;
18200;SDS011;9226;47.858;9.594;2023-12-20T12:44:02;0.73;;;0.63;;
18200;SDS011;9226;47.858;9.594;2023-12-20T12:46:27;0.93;;;0.80;;
18200;SDS011;9226;47.858;9.594;2023-12-20T12:48:53;0.97;;;0.70;;
18200;SDS011;9226;47.858;9.594;2023-12-20T12:51:18;1.00;;;0.80;;
18200;SDS011;9226;47.858;9.594;2023-12-20T12:53:44;2.53;;;1.10;;
18200;SDS011;9226;47.858;9.594;2023-12-20T12:56:09;1.13;;;0.90;;
18200;SDS011;9226;47.858;9.594;2023-12-20T12:58:34;1.30;;;0.90;;
18200;SDS011;9226;47.858;9.594;2023-12-20T13:01:00;1.13;;;0.90;;
18200;SDS011;9226;47.858;9.594;2023-12-20T13:03:25;1.30;;;0.90;;
18200;SDS011;9226;47.858;9.594;2023-12-20T13:05:51;1.37;;;0.90;;
18200;SDS011;9226;47.858;9.594;2023-12-20T13:08:16;3.13;;;1.80;;
18200;SDS011;9226;47.858;9.594;2023-12-20T13:10:42;0.97;;;0.90;;
18200;SDS011;9226;47.858;9.594;2023-12-20T13:13:07;1.90;;;1.10;;
18200;SDS011;9226;47.858;9.594;2023-12-20T13:15:32;1.47;;;1.00;;
18200;SDS011;9226;47.858;9.594;2023-12-20T13:17:58;1.47;;;0.80;;
18200;SDS011;9226;47.858;9.594;2023-12-20T13:20:23;1.20;;;0.93;;
18200;SDS011;9226;47.858;9.594;2023-12-20T13:22:48;1.50;;;0.90;;
18200;SDS011;9226;47.858;9.594;2023-12-20T13:25:14;1.13;;;0.80;;
18200;SDS011;9226;47.858;9.594;2023-12-20T13:27:40;2.87;;;0.90;;
18200;SDS011;9226;47.858;9.594;2023-12-20T13:30:06;1.37;;;1.00;;
18200;SDS011;9226;47.858;9.594;2023-12-20T13:32:32;1.57;;;1.00;;
18200;SDS011;9226;47.858;9.594;2023-12-20T13:34:57;1.20;;;0.90;;
18200;SDS011;9226;47.858;9.594;2023-12-20T13:37:26;2.53;;;1.43;;
18200;SDS011;9226;47.858;9.594;2023-12-20T13:39:51;2.73;;;1.30;;
18200;SDS011;9226;47.858;9.594;2023-12-20T13:42:16;3.17;;;1.30;;
18200;SDS011;9226;47.858;9.594;2023-12-20T13:44:42;2.33;;;1.13;;
18200;SDS011;9226;47.858;9.594;2023-12-20T13:47:07;1.10;;;1.00;;
18200;SDS011;9226;47.858;9.594;2023-12-20T13:49:32;2.53;;;1.10;;
18200;SDS011;9226;47.858;9.594;2023-12-20T13:51:58;3.40;;;0.90;;
18200;SDS011;9226;47.858;9.594;2023-12-20T13:54:24;1.53;;;1.00;;
18200;SDS011;9226;47.858;9.594;2023-12-20T13:56:49;2.47;;;0.97;;
18200;SDS011;9226;47.858;9.594;2023-12-20T13:59:15;1.00;;;0.90;;
18200;SDS011;9226;47.858;9.594;2023-12-20T14:01:40;1.53;;;0.80;;
18200;SDS011;9226;47.858;9.594;2023-12-20T14:04:06;1.10;;;0.90;;
18200;SDS011;9226;47.858;9.594;2023-12-20T14:06:32;1.30;;;0.97;;
18200;SDS011;9226;47.858;9.594;2023-12-20T14:08:58;2.17;;;1.20;;
18200;SDS011;9226;47.858;9.594;2023-12-20T14:11:25;1.53;;;0.90;;
18200;SDS011;9226;47.858;9.594;2023-12-20T14:13:51;2.00;;;1.13;;
18200;SDS011;9226;47.858;9.594;2023-12-20T14:16:16;1.20;;;0.83;;
18200;SDS011;9226;47.858;9.594;2023-12-20T14:18:42;5.93;;;1.10;;
18200;SDS011;9226;47.858;9.594;2023-12-20T14:21:07;1.60;;;1.10;;
18200;SDS011;9226;47.858;9.594;2023-12-20T14:23:33;2.37;;;1.50;;
18200;SDS011;9226;47.858;9.594;2023-12-20T14:26:01;2.37;;;1.30;;
18200;SDS011;9226;47.858;9.594;2023-12-20T14:28:27;1.43;;;0.97;;
18200;SDS011;9226;47.858;9.594;2023-12-20T14:30:52;5.33;;;3.30;;
18200;SDS011;9226;47.858;9.594;2023-12-20T14:33:18;2.77;;;1.40;;
18200;SDS011;9226;47.858;9.594;2023-12-20T14:35:46;1.30;;;1.00;;
18200;SDS011;9226;47.858;9.594;2023-12-20T14:38:11;1.90;;;1.40;;
18200;SDS011;9226;47.858;9.594;2023-12-20T14:40:40;5.77;;;1.53;;
18200;SDS011;9226;47.858;9.594;2023-12-20T14:43:05;3.90;;;1.50;;
18200;SDS011;9226;47.858;9.594;2023-12-20T14:45:31;3.13;;;1.17;;
18200;SDS011;9226;47.858;9.594;2023-12-20T14:47:57;2.77;;;1.20;;
18200;SDS011;9226;47.858;9.594;2023-12-20T14:50:23;2.40;;;1.40;;
18200;SDS011;9226;47.858;9.594;2023-12-20T14:52:49;3.30;;;1.37;;
18200;SDS011;9226;47.858;9.594;2023-12-20T14:55:14;2.00;;;1.20;;
18200;SDS011;9226;47.858;9.594;2023-12-20T14:57:40;2.30;;;1.40;;
18200;SDS011;9226;47.858;9.594;2023-12-20T15:00:06;3.13;;;1.10;;
18200;SDS011;9226;47.858;9.594;2023-12-20T15:02:32;4.77;;;1.23;;